createdAt,value
2018-03-01T00:01:01.975Z,102595.11
2018-03-01T00:05:06.137Z,102590.34
2018-03-01T00:09:09.508Z,102590.98
2018-03-01T00:13:13.633Z,102589.34
2018-03-01T00:17:17.765Z,102588.63
2018-03-01T00:21:21.903Z,102584.56
2018-03-01T00:25:25.454Z,102575.14
2018-03-01T00:29:28.818Z,102576.89
2018-03-01T00:33:32.493Z,102578.62
2018-03-01T00:37:36.038Z,102572.45
2018-03-01T00:41:39.445Z,102572.83
2018-03-01T00:45:43.559Z,102579.62
2018-03-01T00:49:47.074Z,102584.24
2018-03-01T00:53:50.530Z,102575.58
2018-03-01T00:57:54.075Z,102566.38
2018-03-01T01:01:58.196Z,102556.16
2018-03-01T01:06:02.326Z,102556.73
2018-03-01T01:10:05.705Z,102547.03
2018-03-01T01:14:09.061Z,102556.36
2018-03-01T01:18:12.482Z,102555.53
2018-03-01T01:22:15.852Z,102551.59
2018-03-01T01:26:20.257Z,102550.53
2018-03-01T01:30:23.748Z,102538.98
2018-03-01T01:34:27.201Z,102542.02
2018-03-01T01:38:31.325Z,102523.58
2018-03-01T01:42:35.523Z,102508.81
2018-03-01T01:46:38.959Z,102519.90
2018-03-01T01:51:00.235Z,102504.24
2018-03-01T01:55:03.606Z,102502.53
2018-03-01T01:59:06.984Z,102492.44
2018-03-01T02:03:11.117Z,102485.08
2018-03-01T02:07:14.501Z,102479.88
2018-03-01T02:11:17.876Z,102472.97
2018-03-01T02:15:21.267Z,102470.30
2018-03-01T02:19:24.623Z,102454.97
2018-03-01T02:23:28.741Z,102456.30
2018-03-01T02:27:32.885Z,102466.52
2018-03-01T02:31:36.256Z,102439.45
2018-03-01T02:35:39.655Z,102435.50
2018-03-01T02:39:43.022Z,102445.46
2018-03-01T02:43:46.394Z,102440.83
2018-03-01T02:47:50.516Z,102438.55
2018-03-01T02:51:54.646Z,102425.72
2018-03-01T02:55:58.768Z,102422.66
2018-03-01T03:00:02.896Z,102429.70
2018-03-01T03:04:07.017Z,102407.20
2018-03-01T03:08:11.149Z,102411.78
2018-03-01T03:12:14.508Z,102400.66
2018-03-01T03:16:17.880Z,102390.96
2018-03-01T03:20:21.255Z,102397.00
2018-03-01T03:24:25.394Z,102387.62
2018-03-01T03:28:28.754Z,102387.38
2018-03-01T03:32:32.145Z,102386.94
2018-03-01T03:36:35.500Z,102378.95
2018-03-01T03:40:39.645Z,102376.94
2018-03-01T03:44:43.000Z,102369.84
2018-03-01T03:48:46.361Z,102378.97
2018-03-01T03:52:49.721Z,102384.47
2018-03-01T03:56:53.981Z,102375.84
2018-03-01T04:00:57.333Z,102381.02
2018-03-01T04:05:00.712Z,102377.53
2018-03-01T04:09:04.082Z,102366.56
2018-03-01T04:13:08.218Z,102371.25
2018-03-01T04:17:11.583Z,102367.14
2018-03-01T04:21:14.939Z,102359.31
2018-03-01T04:25:18.339Z,102350.93
2018-03-01T04:29:21.715Z,102343.25
2018-03-01T04:33:25.943Z,102334.44
2018-03-01T04:37:30.094Z,102337.03
2018-03-01T04:41:33.475Z,102324.03
2018-03-01T04:45:37.610Z,102320.14
2018-03-01T04:49:40.974Z,102318.77
2018-03-01T04:53:44.337Z,102311.83
2018-03-01T04:57:47.689Z,102315.73
2018-03-01T05:01:51.066Z,102301.86
2018-03-01T05:05:54.467Z,102300.44
2018-03-01T05:09:58.011Z,102295.58
2018-03-01T05:14:01.392Z,102298.91
2018-03-01T05:18:04.777Z,102293.41
2018-03-01T05:22:08.140Z,102287.39
2018-03-01T05:26:12.279Z,102284.92
2018-03-01T05:30:16.433Z,102284.23
2018-03-01T05:34:19.927Z,102263.88
2018-03-01T05:38:23.284Z,102270.36
2018-03-01T05:42:26.682Z,102266.55
2018-03-01T05:46:30.041Z,102260.45
2018-03-01T05:50:33.400Z,102255.62
2018-03-01T05:54:36.776Z,102257.16
2018-03-01T05:58:40.327Z,102264.67
2018-03-01T06:02:43.829Z,102258.23
2018-03-01T06:06:47.211Z,102249.97
2018-03-01T06:10:50.612Z,102250.00
2018-03-01T06:14:54.227Z,102245.17
2018-03-01T06:18:57.623Z,102251.82
2018-03-01T06:23:01.006Z,102239.45
2018-03-01T06:27:04.389Z,102226.91
2018-03-01T06:31:08.526Z,102228.97
2018-03-01T06:35:11.889Z,102229.62
2018-03-01T06:39:15.270Z,102216.34
2018-03-01T06:43:18.629Z,102217.68
2018-03-01T06:47:22.765Z,102204.49
2018-03-01T06:51:26.150Z,102217.75
2018-03-01T06:55:30.386Z,102198.75
2018-03-01T06:59:34.537Z,102188.63
2018-03-01T07:03:37.906Z,102187.17
2018-03-01T07:07:42.042Z,102185.13
2018-03-01T07:11:46.174Z,102181.45
2018-03-01T07:15:49.566Z,102178.52
2018-03-01T07:19:53.737Z,102176.95
2018-03-01T07:23:57.116Z,102174.86
2018-03-01T07:28:00.602Z,102164.03
2018-03-01T07:32:04.726Z,102167.64
2018-03-01T07:36:08.861Z,102163.31
2018-03-01T07:40:12.981Z,102153.60
2018-03-01T07:44:17.110Z,102148.50
2018-03-01T07:48:20.597Z,102135.13
2018-03-01T07:52:24.734Z,102134.15
2018-03-01T07:56:29.066Z,102139.91
2018-03-01T08:00:33.208Z,102117.39
2018-03-01T08:04:36.591Z,102109.89
2018-03-01T08:08:40.726Z,102116.85
2018-03-01T08:12:44.302Z,102112.90
2018-03-01T08:16:47.690Z,102116.27
2018-03-01T08:20:51.139Z,102114.94
2018-03-01T08:24:55.282Z,102107.17
2018-03-01T08:28:58.883Z,102107.97
2018-03-01T08:33:02.299Z,102103.16
2018-03-01T08:37:05.669Z,102095.91
2018-03-01T08:41:09.064Z,102089.02
2018-03-01T08:45:12.474Z,102080.28
2018-03-01T08:49:15.910Z,102080.50
2018-03-01T08:53:20.079Z,102062.95
2018-03-01T08:57:23.485Z,102078.33
2018-03-01T09:01:26.909Z,102072.27
2018-03-01T09:05:30.273Z,102065.13
2018-03-01T09:09:33.661Z,102062.30
2018-03-01T09:13:37.042Z,102068.11
2018-03-01T09:17:41.168Z,102070.61
2018-03-01T09:21:45.316Z,102075.64
2018-03-01T09:25:48.825Z,102059.75
2018-03-01T09:29:52.195Z,102057.39
2018-03-01T09:33:55.577Z,102058.23
2018-03-01T09:37:59.126Z,102055.36
2018-03-01T09:42:03.365Z,102051.59
2018-03-01T09:46:07.509Z,102048.62
2018-03-01T09:50:10.907Z,102044.47
2018-03-01T09:54:14.290Z,102031.25
2018-03-01T09:58:18.461Z,102039.77
2018-03-01T10:02:21.826Z,102040.41
2018-03-01T10:06:26.085Z,102039.23
2018-03-01T10:10:29.488Z,102032.51
2018-03-01T10:14:32.868Z,102034.45
2018-03-01T10:18:37.024Z,102029.31
2018-03-01T10:22:40.421Z,102031.77
2018-03-01T10:26:43.811Z,102017.88
2018-03-01T10:30:47.205Z,102018.61
2018-03-01T10:34:51.366Z,102010.35
2018-03-01T10:38:54.739Z,102003.53
2018-03-01T10:42:58.895Z,102005.36
2018-03-01T10:47:02.311Z,102000.09
2018-03-01T10:51:05.650Z,102009.06
2018-03-01T10:55:09.049Z,101999.06
2018-03-01T10:59:12.459Z,101994.94
2018-03-01T11:03:15.892Z,101995.47
2018-03-01T11:07:19.319Z,101996.24
2018-03-01T11:11:22.737Z,101989.94
2018-03-01T11:15:26.216Z,101972.38
2018-03-01T11:19:29.601Z,101974.39
2018-03-01T11:23:33.055Z,101969.53
2018-03-01T11:27:36.437Z,101954.02
2018-03-01T11:31:39.858Z,101963.03
2018-03-01T11:35:43.297Z,101954.91
2018-03-01T11:39:46.710Z,101957.89
2018-03-01T11:43:50.093Z,101952.84
2018-03-01T11:47:53.497Z,101940.84
2018-03-01T11:51:56.895Z,101932.50
2018-03-01T11:56:00.306Z,101926.11
2018-03-01T12:00:03.810Z,101931.71
2018-03-01T12:04:07.197Z,101928.19
2018-03-01T12:08:10.791Z,101932.75
2018-03-01T12:12:14.915Z,101924.35
2018-03-01T12:16:19.075Z,101913.30
2018-03-01T12:20:22.451Z,101901.23
2018-03-01T12:24:26.578Z,101898.52
2018-03-01T12:28:30.752Z,101895.95
2018-03-01T12:32:34.264Z,101886.01
2018-03-01T12:36:37.638Z,101894.20
2018-03-01T12:40:41.058Z,101886.04
2018-03-01T12:44:44.443Z,101872.77
2018-03-01T12:48:47.877Z,101869.02
2018-03-01T12:52:51.296Z,101871.78
2018-03-01T12:56:54.701Z,101870.85
2018-03-01T13:00:58.122Z,101840.52
2018-03-01T13:05:01.550Z,101852.66
2018-03-01T13:09:06.526Z,101852.84
2018-03-01T13:13:09.932Z,101854.23
2018-03-01T13:17:13.329Z,101836.08
2018-03-01T13:21:16.715Z,101821.04
2018-03-01T13:25:20.864Z,101817.63
2018-03-01T13:29:24.288Z,101823.05
2018-03-01T13:33:32.201Z,101827.95
2018-03-01T13:37:35.616Z,101821.11
2018-03-01T13:41:39.045Z,101829.87
2018-03-01T13:45:42.797Z,101815.50
2018-03-01T13:49:46.992Z,101812.77
2018-03-01T13:53:50.473Z,101803.37
2018-03-01T13:57:53.869Z,101797.62
2018-03-01T14:01:57.480Z,101788.38
2018-03-01T14:10:40.038Z,101791.76
2018-03-01T14:14:43.455Z,101773.28
2018-03-01T14:18:48.776Z,101779.74
2018-03-01T14:22:52.617Z,101772.53
2018-03-01T14:31:34.050Z,101776.97
2018-03-01T14:35:37.571Z,101764.52
2018-03-01T14:39:41.766Z,101763.92
2018-03-01T14:43:45.269Z,101760.95
2018-03-01T14:47:48.889Z,101756.02
2018-03-01T14:51:52.467Z,101750.89
2018-03-01T14:55:56.660Z,101753.86
2018-03-01T15:00:00.083Z,101738.48
2018-03-01T15:04:04.389Z,101740.05
2018-03-01T15:08:07.921Z,101734.51
2018-03-01T15:12:12.109Z,101731.13
2018-03-01T15:16:15.499Z,101733.58
2018-03-01T15:20:18.918Z,101738.16
2018-03-01T15:24:23.173Z,101717.35
2018-03-01T15:28:26.633Z,101703.20
2018-03-01T15:32:30.040Z,101703.44
2018-03-01T15:36:33.474Z,101692.90
2018-03-01T15:40:36.902Z,101690.41
2018-03-01T15:44:41.090Z,101680.87
2018-03-01T15:48:44.516Z,101685.52
2018-03-01T15:52:48.792Z,101653.43
2018-03-01T15:56:52.201Z,101672.29
2018-03-01T16:00:55.680Z,101670.00
2018-03-01T16:04:59.039Z,101667.31
2018-03-01T16:09:02.471Z,101670.02
2018-03-01T16:13:05.880Z,101656.45
2018-03-01T16:17:09.302Z,101643.16
2018-03-01T16:21:12.755Z,101642.20
2018-03-01T16:25:16.311Z,101644.54
2018-03-01T16:29:19.710Z,101647.18
2018-03-01T16:33:23.205Z,101639.47
2018-03-01T16:37:26.614Z,101630.50
2018-03-01T16:41:30.035Z,101635.70
2018-03-01T16:45:33.423Z,101613.36
2018-03-01T16:49:36.983Z,101606.78
2018-03-01T16:53:41.196Z,101614.16
2018-03-01T16:57:44.603Z,101613.72
2018-03-01T17:01:48.035Z,101606.37
2018-03-01T17:05:51.453Z,101619.82
2018-03-01T17:09:55.028Z,101603.00
2018-03-01T17:13:59.201Z,101606.61
2018-03-01T17:18:03.913Z,101593.33
2018-03-01T17:22:08.584Z,101601.80
2018-03-01T17:26:12.085Z,101597.80
2018-03-01T17:30:15.496Z,101589.23
2018-03-01T17:34:18.902Z,101594.66
2018-03-01T17:38:22.335Z,101604.70
2018-03-01T17:42:25.755Z,101608.40
2018-03-01T17:46:30.787Z,101598.93
2018-03-01T17:50:34.210Z,101605.94
2018-03-01T17:54:37.638Z,101593.45
2018-03-01T17:58:41.802Z,101579.41
2018-03-01T18:02:45.200Z,101573.36
2018-03-01T18:06:48.623Z,101565.63
2018-03-01T18:10:52.018Z,101571.56
2018-03-01T18:14:55.416Z,101555.98
2018-03-01T18:18:58.842Z,101569.40
2018-03-01T18:23:02.276Z,101559.05
2018-03-01T18:27:05.821Z,101555.53
2018-03-01T18:31:09.274Z,101552.27
2018-03-01T18:35:12.683Z,101548.95
2018-03-01T18:39:16.142Z,101543.41
2018-03-01T18:43:19.565Z,101533.34
2018-03-01T18:47:22.995Z,101533.72
2018-03-01T18:51:26.431Z,101523.66
2018-03-01T18:55:29.841Z,101529.48
2018-03-01T18:59:33.407Z,101531.78
2018-03-01T19:03:36.918Z,101526.50
2018-03-01T19:07:40.344Z,101525.18
2018-03-01T19:11:43.850Z,101530.56
2018-03-01T19:15:47.264Z,101518.44
2018-03-01T19:19:50.693Z,101522.00
2018-03-01T19:23:54.902Z,101516.09
2018-03-01T19:27:58.333Z,101506.80
2018-03-01T19:32:02.567Z,101511.19
2018-03-01T19:36:06.786Z,101497.21
2018-03-01T19:40:11.000Z,101489.00
2018-03-01T19:44:15.219Z,101489.33
2018-03-01T19:48:18.709Z,101485.24
2018-03-01T19:52:22.144Z,101498.68
2018-03-01T19:56:26.458Z,101482.70
2018-03-01T20:00:31.395Z,101485.83
2018-03-01T20:04:34.908Z,101482.45
2018-03-01T20:08:38.324Z,101477.17
2018-03-01T20:12:41.737Z,101462.30
2018-03-01T20:16:45.952Z,101466.81
2018-03-01T20:20:49.406Z,101466.36
2018-03-01T20:24:52.868Z,101478.83
2018-03-01T20:28:56.838Z,101462.99
2018-03-01T20:33:00.257Z,101474.96
2018-03-01T20:37:03.678Z,101466.17
2018-03-01T20:41:07.069Z,101463.97
2018-03-01T20:45:10.485Z,101464.45
2018-03-01T20:49:13.880Z,101448.37
2018-03-01T20:53:17.270Z,101442.16
2018-03-01T20:57:20.833Z,101453.20
2018-03-01T21:01:24.252Z,101442.98
2018-03-01T21:05:28.440Z,101451.11
2018-03-01T21:09:31.884Z,101441.13
2018-03-01T21:13:36.048Z,101437.84
2018-03-01T21:17:40.307Z,101425.00
2018-03-01T21:21:43.700Z,101427.28
2018-03-01T21:25:47.164Z,101422.89
2018-03-01T21:29:51.310Z,101420.73
2018-03-01T21:33:54.720Z,101432.02
2018-03-01T21:37:58.103Z,101423.02
2018-03-01T21:42:01.882Z,101416.23
2018-03-01T21:46:05.266Z,101421.75
2018-03-01T21:50:08.646Z,101405.04
2018-03-01T21:54:12.134Z,101410.19
2018-03-01T21:58:16.288Z,101402.89
2018-03-01T22:02:19.710Z,101391.31
2018-03-01T22:06:23.207Z,101388.34
2018-03-01T22:10:26.586Z,101370.21
2018-03-01T22:14:29.998Z,101370.16
2018-03-01T22:18:33.379Z,101364.78
2018-03-01T22:22:37.498Z,101354.61
2018-03-01T22:26:40.865Z,101357.59
2018-03-01T22:30:44.364Z,101347.14
2018-03-01T22:34:47.780Z,101347.34
2018-03-01T22:38:51.138Z,101346.52
2018-03-01T22:42:54.542Z,101336.11
2018-03-01T22:46:57.934Z,101334.20
2018-03-01T22:51:02.073Z,101330.83
2018-03-01T22:55:06.250Z,101322.66
2018-03-01T22:59:09.630Z,101314.46
2018-03-01T23:03:13.017Z,101307.97
2018-03-01T23:07:16.369Z,101314.13
2018-03-01T23:11:19.750Z,101306.06
2018-03-01T23:15:23.357Z,101298.19
2018-03-01T23:19:26.855Z,101293.89
2018-03-01T23:23:30.225Z,101302.97
2018-03-01T23:27:34.371Z,101302.83
2018-03-01T23:31:38.503Z,101294.77
2018-03-01T23:35:41.864Z,101307.60
2018-03-01T23:39:45.243Z,101295.69
2018-03-01T23:43:48.618Z,101283.71
2018-03-01T23:47:51.979Z,101280.08
2018-03-01T23:51:55.329Z,101279.75
2018-03-01T23:55:58.695Z,101270.75
